Time;durP1;ratioP1;P1;durP2;ratioP2;P2;SDS_P1;SDS_P2;PMS_P1;PMS_P2;Temp;Humidity;BMP_temperature;BMP_pressure;BME280_temperature;BME280_humidity;BME280_pressure;Samples;Min_cycle;Max_cycle;Signal;HPM_P1;HPM_P2
2021/09/16 00:02:16;;;;;;;9.20;5.35;;;18.20;99.90;;;;;;5048749;28;20045;-76
2021/09/16 00:04:43;;;;;;;9.93;5.53;;;18.30;99.90;;;;;;5048319;28;20111;-78
2021/09/16 00:07:13;;;;;;;9.30;5.78;;;18.10;99.90;;;;;;5046823;28;20103;-76
2021/09/16 00:09:40;;;;;;;10.05;5.32;;;18.20;99.90;;;;;;5045916;28;20056;-76
2021/09/16 00:12:07;;;;;;;11.25;5.75;;;18.20;99.90;;;;;;5046505;28;20494;-77
2021/09/16 00:14:34;;;;;;;8.93;5.03;;;18.20;99.90;;;;;;5042804;28;20075;-76
2021/09/16 00:17:03;;;;;;;9.95;5.95;;;18.20;99.90;;;;;;5040694;28;20048;-78
2021/09/16 00:19:30;;;;;;;9.85;6.10;;;18.10;99.90;;;;;;5040793;28;20115;-78
2021/09/16 00:21:57;;;;;;;9.55;5.28;;;18.10;99.90;;;;;;5042419;28;20452;-77
2021/09/16 00:24:24;;;;;;;10.38;5.43;;;18.00;99.90;;;;;;5042483;28;20508;-76
2021/09/16 00:26:51;;;;;;;12.85;5.57;;;18.10;99.90;;;;;;5042831;28;20397;-76
2021/09/16 00:29:18;;;;;;;9.55;5.00;;;18.10;99.90;;;;;;5040895;28;20541;-75
2021/09/16 00:31:45;;;;;;;9.70;5.50;;;17.90;99.90;;;;;;5042748;28;20505;-76
2021/09/16 00:34:13;;;;;;;12.55;6.18;;;18.00;99.90;;;;;;5042137;28;20045;-75
2021/09/16 00:36:40;;;;;;;15.40;6.03;;;18.00;99.90;;;;;;5042878;28;20048;-76
2021/09/16 00:39:07;;;;;;;9.32;5.25;;;18.10;99.90;;;;;;5040611;28;20080;-76
2021/09/16 00:41:34;;;;;;;9.90;5.32;;;18.10;99.90;;;;;;5041650;28;20049;-76
2021/09/16 00:44:01;;;;;;;12.57;5.40;;;18.00;99.90;;;;;;5040544;28;20671;-75
2021/09/16 00:46:28;;;;;;;8.90;5.35;;;18.00;99.90;;;;;;5040781;28;20110;-76
2021/09/16 00:48:55;;;;;;;9.55;5.35;;;18.00;99.90;;;;;;5040611;28;20457;-75
2021/09/16 00:51:23;;;;;;;10.90;5.18;;;18.00;99.90;;;;;;5039940;28;20094;-75
2021/09/16 00:53:52;;;;;;;10.35;5.78;;;18.10;99.90;;;;;;5038600;28;20537;-75
2021/09/16 00:56:22;;;;;;;11.38;5.43;;;18.00;99.90;;;;;;5037851;28;21143;-74
2021/09/16 00:58:52;;;;;;;11.25;5.82;;;17.90;99.90;;;;;;5037460;28;20129;-75
2021/09/16 01:01:20;;;;;;;9.00;5.68;;;17.90;99.90;;;;;;5038043;28;20143;-75
2021/09/16 01:03:47;;;;;;;11.43;5.75;;;17.90;99.90;;;;;;5038293;28;20049;-76
2021/09/16 01:06:14;;;;;;;9.40;5.72;;;18.00;99.90;;;;;;5035848;28;20221;-76
2021/09/16 01:08:42;;;;;;;13.25;6.05;;;18.00;99.90;;;;;;5038761;28;20548;-76
2021/09/16 01:11:11;;;;;;;11.48;5.97;;;17.90;99.90;;;;;;5039211;28;21509;-76
2021/09/16 01:13:38;;;;;;;10.90;5.53;;;18.00;99.90;;;;;;5044851;28;20099;-76
2021/09/16 01:16:05;;;;;;;9.38;5.70;;;17.90;99.90;;;;;;5046532;28;20045;-76
2021/09/16 01:18:32;;;;;;;8.35;5.15;;;17.90;99.90;;;;;;5049091;28;20080;-75
2021/09/16 01:20:59;;;;;;;13.88;5.72;;;18.00;99.90;;;;;;5046020;28;20048;-75
2021/09/16 01:23:28;;;;;;;12.32;5.80;;;17.90;99.90;;;;;;5046602;28;20130;-74
2021/09/16 01:25:54;;;;;;;9.30;5.60;;;18.00;99.90;;;;;;5044225;28;20049;-75
2021/09/16 01:28:21;;;;;;;10.25;6.18;;;17.90;99.90;;;;;;5045818;28;20048;-74
2021/09/16 01:30:49;;;;;;;10.00;5.40;;;18.00;99.90;;;;;;5042888;28;20098;-75
2021/09/16 01:33:16;;;;;;;8.02;5.15;;;18.00;99.90;;;;;;5042305;28;20585;-75
2021/09/16 01:35:43;;;;;;;10.13;5.50;;;17.90;99.90;;;;;;5042810;28;20073;-74
2021/09/16 01:38:10;;;;;;;12.57;6.68;;;18.00;99.90;;;;;;5043347;28;20096;-73
2021/09/16 01:40:39;;;;;;;10.95;6.10;;;18.00;99.90;;;;;;5043628;28;20098;-74
2021/09/16 01:43:06;;;;;;;15.70;8.00;;;18.10;99.90;;;;;;5045346;28;20127;-75
2021/09/16 01:45:33;;;;;;;10.32;6.30;;;18.10;99.90;;;;;;5041187;28;20045;-74
2021/09/16 01:48:00;;;;;;;9.20;6.05;;;18.10;99.90;;;;;;5042349;28;20152;-74
2021/09/16 01:50:29;;;;;;;11.45;6.32;;;18.00;99.90;;;;;;5043396;28;20068;-74
2021/09/16 01:52:57;;;;;;;9.30;5.80;;;18.00;99.90;;;;;;5044238;28;20091;-74
2021/09/16 01:55:24;;;;;;;10.82;6.93;;;18.00;99.90;;;;;;5042071;28;20048;-74
2021/09/16 01:57:52;;;;;;;15.38;7.18;;;18.00;99.90;;;;;;5042271;28;20191;-74
2021/09/16 02:00:20;;;;;;;10.27;6.18;;;18.00;99.90;;;;;;5041424;28;20700;-74
2021/09/16 02:02:47;;;;;;;12.45;6.63;;;18.00;99.90;;;;;;5042624;28;20091;-74
2021/09/16 02:05:15;;;;;;;12.57;6.63;;;18.00;99.90;;;;;;5037025;28;20082;-74
2021/09/16 02:07:42;;;;;;;9.48;6.65;;;18.00;99.90;;;;;;5038322;28;20052;-74
2021/09/16 02:10:10;;;;;;;13.98;6.97;;;18.00;99.90;;;;;;5037222;28;20048;-75
2021/09/16 02:12:37;;;;;;;10.07;6.65;;;18.00;99.90;;;;;;5038156;28;20044;-74
2021/09/16 02:15:07;;;;;;;10.20;6.03;;;12.50;99.90;;;;;;5037614;28;20048;-75
2021/09/16 02:17:59;;;;;;;10.63;5.93;;;10.50;99.90;;;;;;5042708;28;20037;-74
2021/09/16 02:23:24;;;;;;;;;;;11.30;99.90;;;;;;5040002;28;20059;-75
2021/09/16 02:25:51;;;;;;;10.07;6.95;;;12.70;99.90;;;;;;5039946;28;19932;-74
2021/09/16 02:28:18;;;;;;;9.60;6.13;;;11.40;99.90;;;;;;5039320;28;20045;-74
2021/09/16 02:30:46;;;;;;;10.43;7.03;;;11.60;99.90;;;;;;5041926;28;20131;-74
2021/09/16 02:33:16;;;;;;;11.25;7.65;;;11.50;99.90;;;;;;5040532;28;20098;-74
2021/09/16 02:35:52;;;;;;;13.23;7.05;;;11.30;99.90;;;;;;5039989;28;20063;-74
2021/09/16 02:38:20;;;;;;;14.00;7.17;;;16.30;99.90;;;;;;5040055;28;20105;-75
2021/09/16 02:40:47;;;;;;;13.05;7.97;;;11.40;99.90;;;;;;5039115;28;20052;-75
2021/09/16 02:43:14;;;;;;;11.73;8.02;;;16.50;99.90;;;;;;5037118;28;20049;-75
2021/09/16 02:45:41;;;;;;;16.70;8.27;;;16.70;99.90;;;;;;5036933;28;20125;-75
2021/09/16 02:48:10;;;;;;;15.05;8.57;;;16.90;99.90;;;;;;5037354;28;20048;-75
2021/09/16 02:50:37;;;;;;;15.57;9.38;;;17.00;99.90;;;;;;5041479;28;20037;-75
2021/09/16 02:53:04;;;;;;;14.25;9.85;;;17.10;99.90;;;;;;5035694;28;20536;-75
2021/09/16 02:55:31;;;;;;;16.45;10.63;;;21.60;99.90;;;;;;5036609;28;20045;-74
2021/09/16 02:57:58;;;;;;;16.73;10.43;;;22.20;99.90;;;;;;5035820;28;20084;-74
2021/09/16 03:00:25;;;;;;;21.77;11.10;;;21.90;99.90;;;;;;5037181;28;20049;-73
2021/09/16 03:02:52;;;;;;;16.60;9.43;;;22.30;99.90;;;;;;5036802;28;20056;-76
2021/09/16 03:05:20;;;;;;;18.15;9.65;;;22.80;99.90;;;;;;5036044;28;20054;-75
2021/09/16 03:07:47;;;;;;;16.40;10.80;;;23.10;99.90;;;;;;5036850;28;20098;-76
2021/09/16 03:10:14;;;;;;;16.15;10.60;;;23.40;99.90;;;;;;5036608;28;20052;-77
2021/09/16 03:12:42;;;;;;;15.70;9.48;;;23.80;99.90;;;;;;5038481;28;20080;-78
2021/09/16 03:15:10;;;;;;;18.88;11.23;;;24.10;99.90;;;;;;5041702;28;20106;-78
2021/09/16 03:17:37;;;;;;;14.77;10.98;;;24.50;99.90;;;;;;5039740;28;20089;-77
2021/09/16 03:20:05;;;;;;;16.17;10.50;;;24.90;99.90;;;;;;5040447;28;20094;-75
2021/09/16 03:22:33;;;;;;;15.50;10.70;;;25.20;99.90;;;;;;5041668;28;20102;-76
2021/09/16 03:25:00;;;;;;;19.35;10.98;;;25.50;99.90;;;;;;5040417;28;20088;-74
2021/09/16 03:27:27;;;;;;;19.67;11.00;;;25.70;99.90;;;;;;5040446;28;20048;-75
2021/09/16 03:29:54;;;;;;;15.25;10.18;;;26.00;99.90;;;;;;5039627;28;20113;-75
2021/09/16 03:32:21;;;;;;;16.85;11.55;;;26.30;99.90;;;;;;5039177;28;20122;-75
2021/09/16 03:34:48;;;;;;;17.10;11.95;;;26.70;99.90;;;;;;5043189;28;20129;-75
2021/09/16 03:37:15;;;;;;;19.45;11.77;;;26.80;99.90;;;;;;5040831;28;20110;-77
2021/09/16 03:39:44;;;;;;;20.05;13.05;;;27.10;99.90;;;;;;5047771;28;20060;-76
2021/09/16 03:42:11;;;;;;;21.25;13.02;;;27.50;99.90;;;;;;5047680;28;20447;-76
2021/09/16 03:44:38;;;;;;;16.42;12.40;;;27.50;99.90;;;;;;5047988;28;20573;-75
2021/09/16 03:47:05;;;;;;;23.13;12.13;;;27.50;99.90;;;;;;5046475;28;20145;-76
2021/09/16 03:49:35;;;;;;;16.15;11.25;;;27.50;99.90;;;;;;5046782;28;20059;-76
2021/09/16 03:52:02;;;;;;;16.15;11.80;;;27.30;99.90;;;;;;5047807;28;20053;-76
2021/09/16 03:54:29;;;;;;;21.30;12.57;;;27.00;99.90;;;;;;5048040;28;20145;-75
2021/09/16 03:56:58;;;;;;;18.77;11.77;;;28.30;99.90;;;;;;5047033;28;20159;-75
2021/09/16 03:59:25;;;;;;;17.70;11.43;;;27.90;99.90;;;;;;5047368;28;20127;-76
2021/09/16 04:01:52;;;;;;;16.95;11.25;;;27.90;99.90;;;;;;5048106;28;20138;-76
2021/09/16 04:04:19;;;;;;;16.88;12.02;;;28.00;99.90;;;;;;5047325;28;20462;-77
2021/09/16 04:06:47;;;;;;;17.75;11.00;;;27.90;99.90;;;;;;5043263;28;20048;-76
2021/09/16 04:09:14;;;;;;;19.55;11.32;;;28.90;99.90;;;;;;5041728;28;20059;-76
2021/09/16 04:11:41;;;;;;;16.30;11.57;;;29.30;99.90;;;;;;5042450;28;20080;-76
2021/09/16 04:14:09;;;;;;;17.23;11.43;;;28.40;99.90;;;;;;5041973;28;20565;-76
2021/09/16 04:16:36;;;;;;;15.32;10.32;;;27.50;99.90;;;;;;5042061;28;20094;-76
2021/09/16 04:19:03;;;;;;;15.15;10.60;;;27.10;99.90;;;;;;5042719;28;20139;-76
2021/09/16 04:21:30;;;;;;;16.60;11.25;;;26.90;99.90;;;;;;5041305;28;20570;-77
2021/09/16 04:23:57;;;;;;;16.40;10.85;;;26.90;99.90;;;;;;5041754;28;20048;-77
2021/09/16 04:26:24;;;;;;;14.60;9.85;;;26.70;99.90;;;;;;5042297;28;20114;-76
2021/09/16 04:28:51;;;;;;;18.60;10.38;;;26.70;99.90;;;;;;5042950;28;20088;-76
2021/09/16 04:31:20;;;;;;;15.18;10.65;;;26.50;99.90;;;;;;5044884;28;20091;-76
2021/09/16 04:33:47;;;;;;;15.15;11.20;;;27.40;99.90;;;;;;5046644;28;20044;-77
2021/09/16 04:36:14;;;;;;;16.42;10.75;;;27.00;99.90;;;;;;5045850;28;20044;-77
2021/09/16 04:38:41;;;;;;;15.43;10.75;;;27.00;99.90;;;;;;5047705;28;20084;-77
2021/09/16 04:41:07;;;;;;;17.20;11.43;;;27.00;99.90;;;;;;5048323;28;20156;-77
2021/09/16 04:43:34;;;;;;;16.73;10.85;;;27.40;99.90;;;;;;5046408;28;20048;-77
2021/09/16 04:46:01;;;;;;;16.30;11.75;;;28.20;99.90;;;;;;5043579;28;20048;-77
2021/09/16 04:48:30;;;;;;;19.10;12.60;;;28.60;99.90;;;;;;5044822;28;20579;-76
2021/09/16 04:50:57;;;;;;;22.15;12.02;;;29.60;99.90;;;;;;5044604;28;20137;-81
2021/09/16 04:53:24;;;;;;;19.42;11.77;;;31.00;99.90;;;;;;5044912;28;20118;-78
2021/09/16 04:55:51;;;;;;;17.77;10.90;;;30.70;99.90;;;;;;5044251;28;20044;-78
2021/09/16 04:58:18;;;;;;;20.33;11.13;;;30.40;99.90;;;;;;5043369;28;20084;-75
2021/09/16 05:00:45;;;;;;;19.95;12.30;;;29.80;99.90;;;;;;5046589;28;20048;-77
2021/09/16 05:03:12;;;;;;;19.83;12.02;;;29.40;99.90;;;;;;5042918;28;20084;-75
2021/09/16 05:05:40;;;;;;;18.15;10.93;;;29.10;99.90;;;;;;5044031;28;20048;-77
2021/09/16 05:08:07;;;;;;;17.27;11.77;;;28.60;99.90;;;;;;5044042;28;20527;-75
2021/09/16 05:10:34;;;;;;;18.35;11.43;;;28.40;99.90;;;;;;5044664;28;20094;-76
2021/09/16 05:13:01;;;;;;;16.92;10.60;;;28.10;99.90;;;;;;5044977;28;21233;-75
2021/09/16 05:15:28;;;;;;;20.20;12.18;;;28.00;99.90;;;;;;5046273;28;20047;-77
2021/09/16 05:18:00;;;;;;;18.52;11.73;;;27.80;99.90;;;;;;5041913;28;20127;-75
2021/09/16 05:20:28;;;;;;;17.05;11.57;;;27.80;99.90;;;;;;5043281;28;20405;-74
2021/09/16 05:22:56;;;;;;;15.88;11.52;;;27.60;99.90;;;;;;5043039;28;21091;-75
2021/09/16 05:25:23;;;;;;;18.60;11.95;;;27.60;99.90;;;;;;5036885;28;20705;-75
2021/09/16 05:27:50;;;;;;;17.65;11.60;;;27.50;99.90;;;;;;5039168;28;20049;-74
2021/09/16 05:30:17;;;;;;;17.17;11.63;;;27.60;99.90;;;;;;5044079;28;20098;-74
2021/09/16 05:32:44;;;;;;;19.67;11.90;;;27.60;99.90;;;;;;5044609;28;20106;-74
2021/09/16 05:35:12;;;;;;;21.63;12.35;;;27.50;99.90;;;;;;5042867;28;20648;-75
2021/09/16 05:37:39;;;;;;;17.00;11.23;;;27.60;99.90;;;;;;5042795;28;20095;-73
2021/09/16 05:40:10;;;;;;;20.10;11.52;;;27.60;99.90;;;;;;5043193;28;20072;-74
2021/09/16 05:42:37;;;;;;;16.83;11.77;;;27.60;99.90;;;;;;5043191;28;20051;-74
2021/09/16 05:45:05;;;;;;;17.05;11.82;;;27.70;99.90;;;;;;5044011;28;20564;-73
2021/09/16 05:47:32;;;;;;;20.05;13.82;;;28.40;99.90;;;;;;5035309;28;20135;-74
2021/09/16 05:49:59;;;;;;;20.80;12.55;;;28.70;99.90;;;;;;5039877;28;20084;-74
2021/09/16 05:52:26;;;;;;;16.70;11.70;;;28.40;99.90;;;;;;5040307;28;20471;-73
2021/09/16 05:54:53;;;;;;;18.55;12.80;;;27.80;99.90;;;;;;5040158;28;20571;-74
2021/09/16 05:57:21;;;;;;;18.38;13.38;;;27.70;99.90;;;;;;5041389;28;20154;-74
2021/09/16 05:59:48;;;;;;;19.50;11.82;;;27.70;99.90;;;;;;5040347;28;20072;-74
2021/09/16 06:02:15;;;;;;;20.35;13.95;;;27.60;99.90;;;;;;5044802;28;20048;-73
2021/09/16 06:04:42;;;;;;;19.52;12.90;;;27.50;99.90;;;;;;5045214;28;20593;-74
2021/09/16 06:07:09;;;;;;;19.02;12.38;;;27.30;99.90;;;;;;5044966;28;20076;-73
2021/09/16 06:09:36;;;;;;;20.95;13.27;;;27.40;99.90;;;;;;5044821;28;20084;-74
2021/09/16 06:12:06;;;;;;;22.00;13.60;;;27.40;99.90;;;;;;5042556;28;20081;-74
2021/09/16 06:14:35;;;;;;;24.58;15.35;;;27.30;99.90;;;;;;5042873;28;20137;-74
2021/09/16 06:17:02;;;;;;;22.70;14.88;;;26.90;99.90;;;;;;5043423;28;20515;-73
2021/09/16 06:19:29;;;;;;;26.85;15.55;;;26.40;99.90;;;;;;5040337;28;20088;-73
2021/09/16 06:21:56;;;;;;;23.98;14.65;;;26.00;99.90;;;;;;5042640;28;20079;-73
2021/09/16 06:24:23;;;;;;;25.98;15.75;;;25.80;99.90;;;;;;5039544;28;20099;-73
2021/09/16 06:26:50;;;;;;;26.58;15.82;;;25.70;99.90;;;;;;5042712;28;20503;-73
2021/09/16 06:29:17;;;;;;;28.38;15.60;;;25.70;99.90;;;;;;5042963;28;20056;-73
2021/09/16 06:31:45;;;;;;;31.50;17.80;;;25.40;99.90;;;;;;5046192;28;20084;-73
2021/09/16 06:34:12;;;;;;;30.48;18.63;;;25.30;99.90;;;;;;5043880;28;20088;-72
2021/09/16 06:36:39;;;;;;;41.15;21.20;;;25.30;99.90;;;;;;5044418;28;20080;-74
2021/09/16 06:39:06;;;;;;;39.45;22.38;;;25.20;99.90;;;;;;5042683;28;20620;-72
2021/09/16 06:41:34;;;;;;;41.50;23.40;;;25.40;99.90;;;;;;5047430;28;20048;-75
2021/09/16 06:44:01;;;;;;;46.72;23.20;;;26.00;99.90;;;;;;5046625;28;20059;-73
2021/09/16 06:46:28;;;;;;;52.30;25.58;;;26.00;99.90;;;;;;5048242;28;20493;-73
2021/09/16 06:48:56;;;;;;;45.72;24.35;;;26.10;99.90;;;;;;5050075;28;20059;-73
2021/09/16 06:51:25;;;;;;;33.25;20.38;;;25.80;99.90;;;;;;5049184;28;20304;-73
2021/09/16 06:53:52;;;;;;;50.30;24.98;;;28.80;99.90;;;;;;5048049;28;20135;-74
2021/09/16 06:56:19;;;;;;;59.53;26.02;;;29.20;99.90;;;;;;5047605;28;20051;-74
2021/09/16 06:58:46;;;;;;;51.83;24.98;;;29.10;99.90;;;;;;5050003;28;20098;-75
2021/09/16 07:01:13;;;;;;;51.20;25.35;;;23.40;99.90;;;;;;5048480;28;20064;-75
2021/09/16 07:03:41;;;;;;;56.65;27.50;;;22.90;99.90;;;;;;5047691;28;20144;-72
2021/09/16 07:06:09;;;;;;;45.63;26.48;;;22.70;99.90;;;;;;5045615;28;20501;-73
2021/09/16 07:08:36;;;;;;;51.17;27.27;;;22.60;99.90;;;;;;5048601;28;20055;-73
2021/09/16 07:11:04;;;;;;;52.33;27.98;;;22.40;99.90;;;;;;5045931;28;20363;-74
2021/09/16 07:13:31;;;;;;;57.05;28.77;;;22.50;99.90;;;;;;5047601;28;20048;-73
2021/09/16 07:15:58;;;;;;;45.97;25.92;;;22.40;99.90;;;;;;5046251;28;20182;-73
2021/09/16 07:18:25;;;;;;;47.85;27.02;;;22.30;99.90;;;;;;5046511;28;20060;-73
2021/09/16 07:20:52;;;;;;;41.13;24.73;;;22.30;99.90;;;;;;5047969;28;20056;-73
2021/09/16 07:23:21;;;;;;;44.15;25.67;;;22.10;99.90;;;;;;5047688;28;20048;-74
2021/09/16 07:25:48;;;;;;;35.97;22.77;;;22.00;99.90;;;;;;5043844;28;20504;-73
2021/09/16 07:28:15;;;;;;;36.17;22.80;;;21.90;99.90;;;;;;5045679;28;20154;-74
2021/09/16 07:30:42;;;;;;;38.83;23.00;;;21.70;99.90;;;;;;5045719;28;20057;-74
2021/09/16 07:33:09;;;;;;;38.28;22.92;;;21.70;99.90;;;;;;5047782;28;20065;-74
2021/09/16 07:35:37;;;;;;;36.65;23.75;;;21.50;99.90;;;;;;5044023;28;20102;-74
2021/09/16 07:38:05;;;;;;;38.67;23.35;;;21.50;99.90;;;;;;5047740;28;20074;-73
2021/09/16 07:40:34;;;;;;;39.40;23.40;;;21.50;99.90;;;;;;5046308;28;20057;-73
2021/09/16 07:43:01;;;;;;;43.65;25.13;;;21.60;99.90;;;;;;5046691;28;20105;-73
2021/09/16 07:45:28;;;;;;;36.33;23.05;;;21.60;99.90;;;;;;5047654;28;20479;-74
2021/09/16 07:47:55;;;;;;;36.67;23.30;;;21.50;99.90;;;;;;5048982;28;20056;-73
2021/09/16 07:50:23;;;;;;;40.97;23.90;;;21.30;99.90;;;;;;5047522;28;20053;-74
2021/09/16 07:52:50;;;;;;;36.47;23.73;;;21.40;99.90;;;;;;5049584;28;20059;-74
2021/09/16 07:55:17;;;;;;;41.83;23.90;;;21.50;99.90;;;;;;5047129;28;20547;-74
2021/09/16 07:57:46;;;;;;;39.33;23.35;;;21.60;99.90;;;;;;5050219;28;20061;-74
2021/09/16 08:00:14;;;;;;;37.30;22.75;;;21.70;99.90;;;;;;5048436;28;20052;-74
2021/09/16 08:02:45;;;;;;;38.47;24.17;;;21.80;99.90;;;;;;5047393;28;20816;-73
2021/09/16 08:05:13;;;;;;;39.42;22.45;;;21.90;99.90;;;;;;5048184;28;20048;-75
2021/09/16 08:07:40;;;;;;;34.33;21.48;;;22.00;99.90;;;;;;5047601;28;20048;-75
2021/09/16 08:10:08;;;;;;;34.22;21.23;;;21.60;99.90;;;;;;5046787;28;20064;-74
2021/09/16 08:12:35;;;;;;;39.33;23.42;;;21.60;99.90;;;;;;5048195;28;20402;-74
2021/09/16 08:15:05;;;;;;;43.97;24.15;;;21.70;99.90;;;;;;5044688;28;20056;-75
2021/09/16 08:17:32;;;;;;;40.05;24.42;;;21.80;99.90;;;;;;5047747;28;20497;-74
2021/09/16 08:19:59;;;;;;;31.65;21.27;;;21.80;99.90;;;;;;5045594;28;20044;-74
2021/09/16 08:22:26;;;;;;;32.95;21.38;;;21.60;99.90;;;;;;5047427;28;20048;-74
2021/09/16 08:24:53;;;;;;;29.67;19.92;;;21.70;99.90;;;;;;5048018;28;20133;-74
2021/09/16 08:27:21;;;;;;;30.95;20.58;;;21.80;99.90;;;;;;5045353;28;20048;-74
2021/09/16 08:29:48;;;;;;;30.85;20.08;;;21.80;99.90;;;;;;5047563;28;20501;-74
2021/09/16 08:32:18;;;;;;;31.25;20.42;;;21.50;99.90;;;;;;5044953;28;20052;-74
2021/09/16 08:34:45;;;;;;;32.58;21.38;;;21.60;99.90;;;;;;5047158;28;20063;-74
2021/09/16 08:37:13;;;;;;;33.63;21.25;;;21.70;99.90;;;;;;5046754;28;20058;-75
2021/09/16 08:39:40;;;;;;;32.55;20.67;;;21.80;99.90;;;;;;5045536;28;20140;-75
2021/09/16 08:42:08;;;;;;;26.88;18.55;;;21.80;99.90;;;;;;5046803;28;20048;-74
2021/09/16 08:44:36;;;;;;;27.13;18.58;;;21.50;99.90;;;;;;5046225;28;20135;-74
2021/09/16 08:47:04;;;;;;;31.02;19.38;;;21.40;99.90;;;;;;5043672;28;20127;-74
2021/09/16 08:49:32;;;;;;;30.63;20.13;;;21.30;99.90;;;;;;5045539;28;20044;-74
2021/09/16 08:52:00;;;;;;;29.13;18.25;;;21.40;99.90;;;;;;5044995;28;20048;-74
2021/09/16 08:54:28;;;;;;;28.42;19.50;;;21.20;99.90;;;;;;5045119;28;20512;-75
2021/09/16 08:56:56;;;;;;;30.83;20.85;;;21.20;99.90;;;;;;5044765;28;20476;-74
2021/09/16 08:59:23;;;;;;;28.05;18.23;;;21.40;99.90;;;;;;5045406;28;20413;-75
2021/09/16 09:01:50;;;;;;;26.42;17.20;;;21.40;99.90;;;;;;5046543;28;20045;-75
2021/09/16 09:04:18;;;;;;;30.25;18.83;;;21.30;99.90;;;;;;5042158;28;20582;-75
2021/09/16 09:06:46;;;;;;;25.30;17.52;;;21.30;99.90;;;;;;5043665;28;20512;-74
2021/09/16 09:09:16;;;;;;;31.55;19.27;;;21.20;99.90;;;;;;5045871;28;20131;-75
2021/09/16 09:11:51;;;;;;;32.58;21.27;;;21.40;99.90;;;;;;5045965;28;20058;-75
2021/09/16 09:14:20;;;;;;;31.52;20.60;;;21.50;99.90;;;;;;5045197;28;20307;-75
2021/09/16 09:16:48;;;;;;;31.70;20.65;;;21.70;99.90;;;;;;5044536;28;20040;-75
2021/09/16 09:19:17;;;;;;;32.58;21.25;;;21.60;99.90;;;;;;5043520;28;20048;-75
2021/09/16 09:21:46;;;;;;;28.92;20.83;;;21.60;99.90;;;;;;5044922;28;20052;-76
2021/09/16 09:24:14;;;;;;;31.90;20.30;;;21.60;99.90;;;;;;5044361;28;20469;-75
2021/09/16 09:26:42;;;;;;;33.38;18.90;;;21.60;99.90;;;;;;5044784;28;20052;-75
2021/09/16 09:29:17;;;;;;;23.83;17.92;;;21.60;99.90;;;;;;5046090;28;20397;-75
2021/09/16 09:31:54;;;;;;;26.00;17.20;;;21.70;99.90;;;;;;5046000;28;20580;-76
2021/09/16 09:34:30;;;;;;;24.73;16.23;;;21.60;99.90;;;;;;5044780;28;20497;-75
2021/09/16 09:37:10;;;;;;;24.23;15.65;;;21.70;99.90;;;;;;5043805;28;20052;-76
2021/09/16 09:39:39;;;;;;;26.10;16.75;;;21.60;99.90;;;;;;5045973;28;20508;-75
2021/09/16 09:42:21;;;;;;;29.80;18.40;;;21.40;99.90;;;;;;5044682;28;20056;-75
2021/09/16 09:44:52;;;;;;;27.08;17.42;;;21.50;99.90;;;;;;5041116;28;20183;-75
2021/09/16 09:47:37;;;;;;;28.30;18.98;;;21.50;99.90;;;;;;5042913;28;20402;-76
2021/09/16 09:50:06;;;;;;;30.02;17.45;;;21.40;99.90;;;;;;5044263;28;20048;-76
2021/09/16 09:52:34;;;;;;;23.30;16.42;;;21.40;99.90;;;;;;5045829;28;20048;-76
2021/09/16 09:55:13;;;;;;;24.60;16.92;;;21.30;99.90;;;;;;5041796;28;20056;-76
2021/09/16 09:57:40;;;;;;;27.83;17.20;;;21.00;99.90;;;;;;5042404;28;20929;-77
2021/09/16 10:00:11;;;;;;;22.80;15.25;;;21.10;99.90;;;;;;5047571;28;20044;-75
2021/09/16 10:02:49;;;;;;;23.90;16.70;;;20.90;99.90;;;;;;5045730;28;20057;-77
2021/09/16 10:05:22;;;;;;;26.13;16.90;;;20.90;99.90;;;;;;5045921;28;20056;-75
2021/09/16 10:07:52;;;;;;;26.27;18.10;;;21.00;99.90;;;;;;5044599;28;20412;-76
2021/09/16 10:10:20;;;;;;;24.02;16.45;;;20.80;99.90;;;;;;5042269;28;20499;-76
2021/09/16 10:12:53;;;;;;;29.83;17.75;;;20.90;99.90;;;;;;5041805;28;20118;-75
2021/09/16 10:15:22;;;;;;;29.23;18.88;;;20.70;99.90;;;;;;5043095;28;20045;-77
2021/09/16 10:17:52;;;;;;;28.48;19.35;;;20.50;99.90;;;;;;5044294;28;20093;-75
2021/09/16 10:20:23;;;;;;;28.85;19.67;;;20.40;99.90;;;;;;5043025;28;20075;-75
2021/09/16 10:22:54;;;;;;;29.02;18.80;;;20.60;99.90;;;;;;5044101;28;20392;-75
2021/09/16 10:25:23;;;;;;;28.00;20.15;;;20.60;99.90;;;;;;5040732;28;20048;-75
2021/09/16 10:27:58;;;;;;;31.48;20.80;;;20.80;99.90;;;;;;5042556;28;20145;-75
2021/09/16 10:30:40;;;;;;;25.83;18.33;;;20.80;99.90;;;;;;5041975;28;20094;-77
2021/09/16 10:33:17;;;;;;;28.77;19.13;;;20.70;99.90;;;;;;5043000;28;20045;-75
2021/09/16 10:35:47;;;;;;;29.63;19.90;;;20.40;99.90;;;;;;5042322;28;20052;-76
2021/09/16 10:38:21;;;;;;;31.38;20.45;;;20.30;99.90;;;;;;5042140;28;20059;-78
2021/09/16 10:40:49;;;;;;;29.27;19.85;;;20.30;99.90;;;;;;5045143;28;20482;-78
2021/09/16 10:43:23;;;;;;;30.98;20.88;;;20.30;99.90;;;;;;5043555;28;20426;-75
2021/09/16 10:45:51;;;;;;;29.83;20.65;;;20.40;99.90;;;;;;5043903;28;20401;-75
2021/09/16 10:48:29;;;;;;;29.40;19.48;;;20.50;99.90;;;;;;5041625;28;20045;-76
2021/09/16 10:51:08;;;;;;;30.30;20.65;;;20.40;99.90;;;;;;5035984;28;20048;-79
2021/09/16 10:53:45;;;;;;;32.40;19.90;;;20.40;99.90;;;;;;5036529;28;20040;-78
2021/09/16 10:56:40;;;;;;;31.95;20.70;;;20.30;99.90;;;;;;5035110;28;20059;-76
2021/09/16 10:59:08;;;;;;;31.70;20.15;;;20.20;99.90;;;;;;5035129;28;20048;-79
2021/09/16 11:02:02;;;;;;;30.35;20.58;;;20.00;99.90;;;;;;5037446;28;20045;-78
2021/09/16 11:05:14;;;;;;;33.20;21.17;;;20.20;99.90;;;;;;4992364;28;20073;-76
2021/09/16 11:07:52;;;;;;;33.80;20.50;;;20.50;99.90;;;;;;4981427;28;20080;-75
2021/09/16 11:10:50;;;;;;;30.17;20.27;;;20.50;99.90;;;;;;5034647;28;20060;-76
2021/09/16 11:13:50;;;;;;;24.00;15.73;;;20.40;99.90;;;;;;5041809;28;20068;-76
2021/09/16 11:16:25;;;;;;;14.10;6.80;;;20.30;99.90;;;;;;5046608;28;20085;-75
2021/09/16 11:19:01;;;;;;;12.15;6.82;;;20.00;99.90;;;;;;5048654;28;20052;-75
2021/09/16 11:21:28;;;;;;;13.18;7.40;;;19.40;99.90;;;;;;5050913;28;20048;-75
2021/09/16 11:23:55;;;;;;;15.40;8.10;;;19.20;99.90;;;;;;5047728;28;20078;-76
2021/09/16 11:26:27;;;;;;;19.58;8.98;;;19.20;99.90;;;;;;5047426;28;20084;-76
2021/09/16 11:29:02;;;;;;;17.38;9.35;;;19.20;99.90;;;;;;5046845;28;20075;-76
2021/09/16 11:31:29;;;;;;;13.73;8.93;;;19.00;99.90;;;;;;5047508;28;20080;-76
2021/09/16 11:34:16;;;;;;;15.07;10.00;;;19.00;99.90;;;;;;5050419;28;20225;-78
2021/09/16 11:37:05;;;;;;;15.60;11.07;;;19.00;99.90;;;;;;5051601;28;20076;-75
2021/09/16 11:39:32;;;;;;;19.20;11.43;;;19.10;99.90;;;;;;5051552;28;20052;-76
2021/09/16 11:42:16;;;;;;;20.65;10.77;;;19.20;99.90;;;;;;5052680;28;20063;-78
2021/09/16 11:45:08;;;;;;;20.40;10.02;;;19.10;99.90;;;;;;5048340;28;20056;-78
2021/09/16 11:47:40;;;;;;;24.35;11.10;;;19.10;99.90;;;;;;5049182;28;20562;-75
2021/09/16 11:50:11;;;;;;;15.88;10.52;;;19.20;99.90;;;;;;5051233;28;20143;-75
2021/09/16 11:52:42;;;;;;;22.20;10.38;;;19.30;99.90;;;;;;5051732;28;20503;-75
2021/09/16 11:55:12;;;;;;;15.07;10.60;;;19.40;99.90;;;;;;5049032;28;20072;-79
2021/09/16 11:58:11;;;;;;;16.08;10.68;;;19.20;99.90;;;;;;5050644;28;20901;-78
2021/09/16 12:00:41;;;;;;;17.30;11.40;;;19.40;99.90;;;;;;4981383;28;20736;-75
2021/09/16 12:03:10;;;;;;;20.77;12.70;;;19.50;99.90;;;;;;5034851;28;20083;-76
2021/09/16 12:05:42;;;;;;;23.00;14.00;;;19.40;99.90;;;;;;5048229;28;20083;-75
2021/09/16 12:08:11;;;;;;;23.80;13.32;;;19.60;99.90;;;;;;5046457;28;20101;-76
2021/09/16 12:10:55;;;;;;;22.40;12.52;;;19.80;99.90;;;;;;5046678;28;20088;-75
2021/09/16 12:13:25;;;;;;;15.48;10.93;;;19.80;99.90;;;;;;5044338;28;20072;-74
2021/09/16 12:16:01;;;;;;;14.35;10.77;;;19.50;99.90;;;;;;5049471;28;20136;-74
2021/09/16 12:18:28;;;;;;;18.08;11.18;;;19.70;99.90;;;;;;5047244;28;20516;-75
2021/09/16 12:20:55;;;;;;;14.52;10.52;;;19.90;99.90;;;;;;5047323;28;20125;-74
2021/09/16 12:23:23;;;;;;;16.67;11.95;;;19.80;99.90;;;;;;5046925;28;20386;-73
2021/09/16 12:25:53;;;;;;;15.93;10.70;;;19.80;99.90;;;;;;5046205;28;20045;-74
2021/09/16 12:28:20;;;;;;;18.63;11.63;;;19.70;99.90;;;;;;5044422;28;20466;-75
2021/09/16 12:30:49;;;;;;;19.52;11.75;;;19.70;99.90;;;;;;5040972;28;20102;-73
2021/09/16 12:33:43;;;;;;;19.23;12.15;;;19.50;99.90;;;;;;5042428;28;20077;-73
2021/09/16 12:36:12;;;;;;;17.33;12.05;;;19.50;99.90;;;;;;5041653;28;20052;-73
2021/09/16 12:38:41;;;;;;;16.60;11.13;;;19.30;99.90;;;;;;5045118;28;20056;-73
2021/09/16 12:41:29;;;;;;;17.02;11.27;;;19.40;99.90;;;;;;5044764;28;20086;-73
2021/09/16 12:44:02;;;;;;;17.75;12.65;;;19.60;99.90;;;;;;5042649;28;20456;-73
2021/09/16 12:46:40;;;;;;;19.10;11.32;;;19.70;99.90;;;;;;5042906;28;20037;-74